Time;durP1;ratioP1;P1;durP2;ratioP2;P2;SDS_P1;SDS_P2;PMS_P1;PMS_P2;Temp;Humidity;BMP_temperature;BMP_pressure;BME280_temperature;BME280_humidity;BME280_pressure;Samples;Min_cycle;Max_cycle;Signal;HPM_P1;HPM_P2
2022/08/18 00:01:22;;;;;;;3.83;1.95;;;;;;;;;;5009789;28;20475;-89
2022/08/18 00:03:49;;;;;;;3.58;1.50;;;;;;;;;;5011388;28;20483;-89
2022/08/18 00:06:16;;;;;;;4.57;2.10;;;20.30;93.40;;;;;;5012607;28;20026;-89
2022/08/18 00:08:42;;;;;;;4.68;2.17;;;;;;;;;;5013037;28;20037;-88
2022/08/18 00:11:08;;;;;;;2.92;2.17;;;;;;;;;;4996197;28;20041;-89
2022/08/18 00:13:34;;;;;;;2.80;1.58;;;;;;;;;;5012615;28;20030;-89
2022/08/18 00:16:00;;;;;;;3.08;1.88;;;;;;;;;;5013693;28;20076;-89
2022/08/18 00:18:26;;;;;;;6.47;2.10;;;;;;;;;;5013832;28;20029;-89
2022/08/18 00:20:52;;;;;;;3.45;1.95;;;;;;;;;;5013548;28;20026;-89
2022/08/18 00:23:18;;;;;;;3.10;2.25;;;;;;;;;;5012795;28;20022;-89
2022/08/18 00:25:44;;;;;;;2.85;2.15;;;;;;;;;;5013664;28;20071;-90
2022/08/18 00:28:12;;;;;;;5.20;1.58;;;;;;;;;;5014197;28;20029;-89
2022/08/18 00:30:38;;;;;;;3.60;1.80;;;;;;;;;;5008556;28;20058;-89
2022/08/18 00:33:05;;;;;;;7.10;1.85;;;;;;;;;;4994689;28;20565;-90
2022/08/18 00:35:37;;;;;;;5.47;2.25;;;20.90;91.30;;;;;;4991627;28;20104;-88
2022/08/18 00:38:05;;;;;;;3.00;2.20;;;21.20;90.90;;;;;;4992298;28;20030;-89
2022/08/18 00:40:44;;;;;;;3.55;2.25;;;20.90;91.30;;;;;;4992637;28;20141;-90
2022/08/18 00:43:21;;;;;;;10.05;2.20;;;20.90;91.20;;;;;;4985690;28;20583;-89
2022/08/18 00:45:48;;;;;;;8.82;2.58;;;;;;;;;;4991038;28;20113;-90
2022/08/18 00:48:14;;;;;;;3.13;2.10;;;20.60;91.60;;;;;;4992270;28;20041;-87
2022/08/18 00:50:40;;;;;;;6.53;2.65;;;;;;;;;;4965357;28;20023;-88
2022/08/18 00:53:19;;;;;;;3.47;2.25;;;;;;;;;;4987116;28;20129;-89
2022/08/18 00:55:47;;;;;;;4.45;2.67;;;;;;;;;;4975800;28;20034;-90
2022/08/18 00:58:15;;;;;;;4.10;2.28;;;;;;;;;;4993453;28;20030;-89
2022/08/18 01:00:42;;;;;;;3.28;2.13;;;21.50;88.40;;;;;;4994138;28;20113;-89
2022/08/18 01:03:12;;;;;;;4.25;2.13;;;;;;;;;;4992308;28;20038;-89
2022/08/18 01:05:46;;;;;;;2.72;2.45;;;21.60;87.10;;;;;;5007171;28;20026;-89
2022/08/18 01:08:14;;;;;;;4.82;2.60;;;21.10;88.40;;;;;;4978078;28;20030;-89
2022/08/18 01:10:41;;;;;;;4.88;2.78;;;21.00;87.80;;;;;;4988202;28;20605;-90
2022/08/18 01:13:07;;;;;;;2.33;2.10;;;;;;;;;;4993318;28;20480;-90
2022/08/18 01:15:33;;;;;;;3.45;1.85;;;;;;;;;;4992725;28;20053;-88
2022/08/18 01:24:09;;;;;;;5.55;2.45;;;19.80;92.30;;;;;;4994068;28;20542;-88
2022/08/18 01:26:48;;;;;;;3.90;2.28;;;20.10;92.10;;;;;;4989994;28;20065;-88
2022/08/18 01:29:15;;;;;;;3.60;2.33;;;20.40;91.30;;;;;;4992187;28;20703;-89
2022/08/18 01:31:48;;;;;;;2.55;1.73;;;20.50;90.70;;;;;;4974956;28;20057;-90
2022/08/18 01:34:15;;;;;;;3.05;2.08;;;;;;;;;;4975247;28;20039;-88
2022/08/18 01:36:42;;;;;;;5.88;2.78;;;20.50;90.50;;;;;;4992944;28;20023;-89
2022/08/18 01:39:10;;;;;;;6.82;2.60;;;20.70;90.00;;;;;;4975244;28;20073;-89
2022/08/18 01:41:37;;;;;;;3.72;2.20;;;;;;;;;;4979921;28;20042;-88
2022/08/18 01:44:04;;;;;;;3.20;2.08;;;20.90;88.90;;;;;;4975356;28;20023;-89
2022/08/18 01:46:33;;;;;;;5.05;2.60;;;21.10;88.00;;;;;;4975045;28;20030;-89
2022/08/18 01:49:00;;;;;;;3.53;2.50;;;21.20;86.90;;;;;;4992651;28;20073;-89
2022/08/18 01:51:28;;;;;;;2.90;2.17;;;21.00;86.50;;;;;;5007497;28;20068;-88
2022/08/18 01:53:54;;;;;;;3.22;2.10;;;;;;;;;;5007822;28;20042;-88
2022/08/18 01:56:20;;;;;;;2.85;1.60;;;;;;;;;;5002371;28;20030;-88
2022/08/18 01:58:46;;;;;;;2.70;1.83;;;;;;;;;;4992556;28;20027;-89
2022/08/18 02:01:13;;;;;;;3.00;1.40;;;20.30;90.30;;;;;;4991987;28;20045;-88
2022/08/18 02:03:45;;;;;;;7.35;2.33;;;20.50;90.00;;;;;;5007665;28;20026;-87
2022/08/18 02:06:13;;;;;;;2.22;1.90;;;20.30;90.00;;;;;;5002792;28;20031;-89
2022/08/18 02:08:39;;;;;;;2.90;2.50;;;;;;;;;;4984362;28;20027;-88
2022/08/18 02:11:06;;;;;;;11.63;2.63;;;20.00;90.80;;;;;;4991662;28;20034;-88
2022/08/18 02:13:32;;;;;;;3.38;2.05;;;;;;;;;;4974812;28;20026;-88
2022/08/18 02:15:59;;;;;;;4.32;2.00;;;;;;;;;;4987459;28;20042;-89
2022/08/18 02:18:27;;;;;;;3.08;1.95;;;;;;;;;;4991511;28;20030;-88
2022/08/18 02:20:54;;;;;;;3.97;2.47;;;19.80;91.20;;;;;;4986585;28;20031;-88
2022/08/18 02:23:20;;;;;;;5.25;2.92;;;;;;;;;;4991745;28;20026;-88
2022/08/18 02:25:46;;;;;;;4.00;2.03;;;;;;;;;;4972449;28;20026;-88
2022/08/18 02:28:12;;;;;;;5.20;2.95;;;;;;;;;;4974354;28;20206;-90
2022/08/18 02:30:38;;;;;;;6.90;2.42;;;;;;;;;;4994995;28;20130;-88
2022/08/18 02:33:05;;;;;;;13.80;2.83;;;;;;;;;;5003832;28;20069;-88
2022/08/18 02:35:32;;;;;;;7.68;2.40;;;;;;;;;;4991459;28;20042;-88
2022/08/18 02:38:02;;;;;;;5.43;2.95;;;;;;;;;;4991705;28;20022;-89
2022/08/18 02:40:28;;;;;;;6.18;2.40;;;;;;;;;;4990220;28;20026;-89
2022/08/18 02:42:54;;;;;;;4.22;2.28;;;;;;;;;;4985978;28;20415;-88
2022/08/18 02:45:22;;;;;;;5.00;2.15;;;;;;;;;;4991460;28;20026;-89
2022/08/18 02:47:53;;;;;;;4.43;2.33;;;19.40;92.40;;;;;;4991575;28;20105;-88
2022/08/18 02:50:19;;;;;;;3.88;1.98;;;;;;;;;;4979209;28;20030;-89
2022/08/18 02:52:45;;;;;;;3.53;2.10;;;;;;;;;;4976742;28;20030;-89
2022/08/18 02:55:11;;;;;;;2.60;2.05;;;;;;;;;;4985155;28;20623;-88
2022/08/18 02:57:42;;;;;;;7.43;1.85;;;19.00;94.20;;;;;;4990831;28;20041;-89
2022/08/18 03:00:11;;;;;;;3.95;2.25;;;;;;;;;;4985098;28;20030;-89
2022/08/18 03:02:37;;;;;;;4.25;2.53;;;;;;;;;;4986902;28;20035;-88
2022/08/18 03:05:03;;;;;;;5.78;3.35;;;;;;;;;;4973178;28;20072;-88
2022/08/18 03:07:29;;;;;;;5.68;2.60;;;;;;;;;;4979580;28;20027;-88
2022/08/18 03:09:55;;;;;;;3.65;2.78;;;;;;;;;;4973882;28;20035;-88
2022/08/18 03:12:21;;;;;;;5.57;2.75;;;;;;;;;;4984762;28;20027;-90
2022/08/18 03:14:48;;;;;;;4.63;2.33;;;;;;;;;;4986879;28;20038;-88
2022/08/18 03:17:14;;;;;;;5.28;2.88;;;;;;;;;;4989827;28;20019;-88
2022/08/18 03:19:40;;;;;;;9.90;3.13;;;;;;;;;;5005761;28;20030;-88
2022/08/18 03:22:08;;;;;;;5.93;2.72;;;19.10;92.80;;;;;;4978148;28;20050;-89
2022/08/18 03:24:35;;;;;;;10.02;2.40;;;;;;;;;;4979878;28;20029;-88
2022/08/18 03:27:05;;;;;;;4.25;2.25;;;19.00;93.30;;;;;;4988436;28;20057;-89
2022/08/18 03:29:31;;;;;;;5.63;2.83;;;;;;;;;;4990693;28;20506;-90
2022/08/18 03:31:57;;;;;;;3.47;2.28;;;;;;;;;;4990886;28;20065;-89
2022/08/18 03:34:23;;;;;;;6.53;3.28;;;;;;;;;;4976604;28;20030;-88
2022/08/18 03:36:49;;;;;;;6.80;2.50;;;;;;;;;;4973690;28;20026;-89
2022/08/18 03:39:16;;;;;;;5.50;2.63;;;;;;;;;;4992603;28;20037;-89
2022/08/18 03:41:44;;;;;;;4.15;2.30;;;18.70;92.40;;;;;;4977259;28;20038;-89
2022/08/18 03:44:11;;;;;;;4.50;2.88;;;;;;;;;;4994847;28;20303;-89
2022/08/18 03:46:37;;;;;;;4.53;2.85;;;;;;;;;;4966332;28;20042;-89
2022/08/18 03:49:03;;;;;;;4.45;2.75;;;;;;;;;;4987303;28;20019;-88
2022/08/18 03:51:31;;;;;;;4.72;2.10;;;;;;;;;;4986113;28;20053;-89
2022/08/18 03:53:59;;;;;;;3.33;2.60;;;18.80;92.40;;;;;;4994303;28;20034;-90
2022/08/18 03:56:27;;;;;;;10.35;2.83;;;18.30;93.20;;;;;;4977891;28;20034;-88
2022/08/18 03:58:58;;;;;;;7.43;3.45;;;18.40;94.20;;;;;;4994392;28;20037;-89
2022/08/18 04:01:28;;;;;;;6.15;2.53;;;18.80;93.20;;;;;;4981524;28;20023;-88
2022/08/18 04:03:57;;;;;;;6.38;2.97;;;19.20;92.20;;;;;;4986603;28;20109;-90
2022/08/18 04:06:29;;;;;;;6.63;3.17;;;19.00;92.00;;;;;;5002753;28;20018;-90
2022/08/18 04:08:55;;;;;;;5.00;2.53;;;;;;;;;;4994492;28;20033;-88
2022/08/18 04:11:22;;;;;;;4.90;2.85;;;;;;;;;;4976793;28;20149;-88
2022/08/18 04:13:48;;;;;;;5.50;3.17;;;;;;;;;;4976687;28;20578;-89
2022/08/18 04:16:14;;;;;;;6.07;3.53;;;;;;;;;;4981283;28;20026;-89
2022/08/18 04:18:40;;;;;;;6.57;3.85;;;;;;;;;;4994055;28;20111;-89
2022/08/18 04:21:10;;;;;;;8.65;3.13;;;19.00;92.90;;;;;;4993880;28;20022;-88
2022/08/18 04:23:37;;;;;;;11.35;3.15;;;19.30;91.90;;;;;;4994147;28;20061;-89
2022/08/18 04:26:05;;;;;;;5.30;3.53;;;19.60;91.20;;;;;;4979757;28;20500;-89
2022/08/18 04:28:31;;;;;;;5.40;3.08;;;;;;;;;;4983815;28;20030;-89
2022/08/18 04:30:58;;;;;;;6.32;3.65;;;;;;;;;;5001564;28;20100;-89
2022/08/18 04:33:27;;;;;;;8.32;3.47;;;19.50;91.20;;;;;;5012895;28;20032;-88
2022/08/18 04:35:54;;;;;;;6.00;3.38;;;19.60;90.70;;;;;;5012503;28;20136;-87
2022/08/18 04:38:20;;;;;;;6.67;3.47;;;;;;;;;;5013092;28;20074;-89
2022/08/18 04:40:46;;;;;;;5.35;3.85;;;;;;;;;;5012516;28;20281;-87
2022/08/18 04:43:14;;;;;;;5.95;3.65;;;;;;;;;;5005399;28;20542;-90
2022/08/18 04:45:44;;;;;;;7.97;3.65;;;;;;;;;;5013566;28;20025;-89
2022/08/18 04:48:11;;;;;;;6.28;4.03;;;;;;;;;;5005505;28;20029;-89
2022/08/18 04:50:38;;;;;;;8.17;3.57;;;;;;;;;;5012046;28;20455;-89
2022/08/18 04:55:50;;;;;;;8.10;4.18;;;;;;;;;;5006055;28;20089;-90
2022/08/18 04:58:17;;;;;;;6.90;3.95;;;;;;;;;;5012120;28;20030;-89
2022/08/18 05:00:44;;;;;;;7.22;3.53;;;;;;;;;;5008924;28;20074;-90
2022/08/18 05:03:10;;;;;;;10.35;4.65;;;;;;;;;;5007984;28;20030;-89
2022/08/18 05:05:36;;;;;;;8.20;4.18;;;;;;;;;;4989389;28;20427;-89
2022/08/18 05:08:02;;;;;;;8.13;4.45;;;;;;;;;;5009586;28;20048;-89
2022/08/18 05:10:28;;;;;;;12.40;4.80;;;;;;;;;;5009572;28;20030;-90
2022/08/18 05:12:54;;;;;;;7.95;3.97;;;;;;;;;;5007164;28;20099;-89
2022/08/18 05:15:20;;;;;;;5.95;3.58;;;;;;;;;;5012998;28;20045;-88
2022/08/18 05:17:46;;;;;;;8.35;4.25;;;;;;;;;;4982338;28;20034;-88
2022/08/18 05:20:12;;;;;;;9.82;3.95;;;;;;;;;;5012835;28;20030;-88
2022/08/18 05:22:40;;;;;;;7.50;4.78;;;19.20;93.30;;;;;;5012309;28;20037;-88
2022/08/18 05:25:10;;;;;;;7.82;5.43;;;;;;;;;;4981903;28;20029;-93
2022/08/18 05:27:39;;;;;;;13.15;5.05;;;19.90;92.40;;;;;;5011316;28;20030;-92
2022/08/18 05:30:06;;;;;;;12.25;6.57;;;20.20;92.10;;;;;;5005717;28;20060;-92
2022/08/18 05:32:39;;;;;;;5.40;3.30;;;;;;;;;;5010230;28;20040;-92
2022/08/18 05:35:14;;;;;;;7.38;4.03;;;20.10;90.50;;;;;;5004218;28;20510;-94
2022/08/18 05:37:56;;;;;;;7.30;3.58;;;20.20;90.40;;;;;;5007978;28;20027;-95
2022/08/18 05:40:23;;;;;;;9.55;4.07;;;20.10;90.80;;;;;;4988290;28;20733;-94
2022/08/18 05:42:49;;;;;;;;;;;20.30;89.70;;;;;;5003570;28;20026;-94
2022/08/18 05:45:18;;;;;;;5.43;3.17;;;20.30;90.20;;;;;;5010976;28;20737;-94
2022/08/18 05:47:44;;;;;;;4.95;3.35;;;;;;;;;;4995724;28;20026;-94
2022/08/18 05:50:17;;;;;;;6.68;3.53;;;20.30;90.60;;;;;;4995748;28;20108;-94
2022/08/18 05:52:52;;;;;;;5.45;3.88;;;;;;;;;;5011629;28;20120;-94
2022/08/18 05:58:33;;;;;;;9.00;4.05;;;20.00;91.50;;;;;;5009171;28;20025;-94
2022/08/18 06:01:07;;;;;;;7.40;3.92;;;19.90;91.80;;;;;;5013911;28;20470;-94
2022/08/18 06:03:42;;;;;;;7.13;3.40;;;;;;;;;;5013343;28;20116;-94
2022/08/18 06:06:12;;;;;;;8.25;4.25;;;20.20;92.00;;;;;;4992219;28;20492;-94
2022/08/18 06:08:47;;;;;;;7.53;4.85;;;20.30;92.60;;;;;;5018599;28;20046;-94
2022/08/18 06:11:13;;;;;;;14.80;5.25;;;;;;;;;;5009616;28;20112;-93
2022/08/18 06:13:41;;;;;;;9.93;3.80;;;21.10;91.10;;;;;;5020838;28;20518;-93
2022/08/18 06:16:24;;;;;;;9.38;4.72;;;21.00;91.00;;;;;;5006244;28;20033;-94
2022/08/18 06:18:55;;;;;;;8.63;4.65;;;;;;;;;;4992259;28;20029;-93
2022/08/18 06:21:26;;;;;;;7.55;4.40;;;;;;;;;;5000091;28;20015;-96
2022/08/18 06:23:52;;;;;;;8.23;4.05;;;;;;;;;;5012248;28;20049;-96
2022/08/18 06:26:22;;;;;;;10.52;5.10;;;;;;;;;;5101879;23;20025;-96
2022/08/18 06:29:09;;;;;;;8.45;4.57;;;;;;;;;;5353679;23;20147;-96
2022/08/18 06:31:42;;;;;;;9.98;4.22;;;;;;;;;;5042646;28;20085;-96
2022/08/18 06:34:08;;;;;;;6.38;3.83;;;;;;;;;;5046436;28;20658;-81
2022/08/18 06:36:49;;;;;;;7.45;3.72;;;;;;;;;;5068638;28;20028;-95
2022/08/18 06:39:18;;;;;;;5.72;3.03;;;;;;;;;;5047508;28;20100;-92
2022/08/18 06:41:49;;;;;;;8.60;4.60;;;21.30;91.00;;;;;;5039060;28;20708;-81
2022/08/18 06:44:33;;;;;;;8.13;4.38;;;;;;;;;;5046829;28;20021;-81
2022/08/18 06:47:14;;;;;;;12.00;4.78;;;21.20;90.30;;;;;;5044373;28;20029;-82
2022/08/18 06:49:42;;;;;;;6.20;3.80;;;21.20;90.40;;;;;;5040240;28;20032;-82
2022/08/18 06:52:38;;;;;;;8.63;4.18;;;21.00;91.00;;;;;;5045094;28;20029;-82
2022/08/18 06:55:14;;;;;;;6.78;4.75;;;21.20;91.10;;;;;;5041236;28;20044;-82
2022/08/18 06:57:56;;;;;;;6.75;3.03;;;21.20;90.70;;;;;;5045766;28;20108;-82
2022/08/18 07:00:25;;;;;;;7.65;3.70;;;21.10;90.70;;;;;;5046518;28;20074;-82
2022/08/18 07:03:06;;;;;;;11.07;4.75;;;;;;;;;;5044404;28;20026;-82
2022/08/18 07:05:34;;;;;;;10.15;4.05;;;21.60;89.60;;;;;;5044800;28;20375;-83
2022/08/18 07:08:11;;;;;;;5.40;3.42;;;;;;;;;;5046579;28;20036;-84
2022/08/18 07:10:41;;;;;;;8.25;3.85;;;21.40;89.90;;;;;;5036947;28;20598;-83
2022/08/18 07:13:16;;;;;;;11.27;5.35;;;21.50;88.70;;;;;;5042443;28;20116;-83
2022/08/18 07:15:44;;;;;;;7.78;4.22;;;;;;;;;;5049913;28;20401;-82
2022/08/18 07:18:10;;;;;;;9.18;5.63;;;;;;;;;;5049529;28;20021;-81
2022/08/18 07:20:42;;;;;;;8.82;4.95;;;;;;;;;;5049301;28;20029;-81
2022/08/18 07:23:09;;;;;;;6.60;3.70;;;;;;;;;;5049105;28;20034;-81
2022/08/18 07:25:39;;;;;;;9.23;4.85;;;;;;;;;;5049183;28;20052;-81
2022/08/18 07:28:05;;;;;;;10.77;3.60;;;;;;;;;;5049810;28;20041;-81
2022/08/18 07:30:35;;;;;;;7.82;4.45;;;21.80;87.10;;;;;;5049626;28;20625;-81
2022/08/18 07:33:04;;;;;;;4.93;3.78;;;;;;;;;;5048819;28;20096;-81
2022/08/18 07:35:34;;;;;;;6.75;4.28;;;;;;;;;;5048505;28;20033;-81
2022/08/18 07:38:03;;;;;;;6.55;4.22;;;;;;;;;;5049781;28;20021;-81
2022/08/18 07:40:36;;;;;;;10.68;5.15;;;;;;;;;;5048956;28;20037;-81
2022/08/18 07:43:13;;;;;;;9.32;6.05;;;23.80;79.70;;;;;;5047646;28;20032;-81
2022/08/18 07:45:44;;;;;;;8.38;4.95;;;24.40;78.20;;;;;;5041017;28;20393;-81
2022/08/18 07:48:11;;;;;;;8.07;4.70;;;;;;;;;;5048415;28;20036;-81
2022/08/18 07:51:06;;;;;;;10.75;5.18;;;25.00;73.10;;;;;;5048376;28;20021;-81
2022/08/18 07:53:43;;;;;;;9.95;5.13;;;25.50;72.30;;;;;;5044735;28;20502;-81
2022/08/18 07:56:27;;;;;;;6.13;3.88;;;25.50;72.00;;;;;;5046101;28;20028;-81
2022/08/18 07:59:01;;;;;;;8.32;4.53;;;25.00;72.30;;;;;;5046724;28;20379;-80
2022/08/18 08:01:33;;;;;;;7.22;4.03;;;;;;;;;;5048163;28;20076;-80
2022/08/18 08:04:11;;;;;;;6.93;3.97;;;;;;;;;;5046756;28;20033;-81
2022/08/18 08:06:37;;;;;;;7.13;4.03;;;;;;;;;;5047695;28;20397;-81
2022/08/18 08:09:24;;;;;;;6.80;4.13;;;25.90;69.10;;;;;;5047989;28;20048;-81
2022/08/18 08:11:51;;;;;;;6.75;3.78;;;;;;;;;;5046351;28;20481;-81
2022/08/18 08:14:41;;;;;;;7.90;4.55;;;25.00;71.40;;;;;;5048087;28;20068;-80
2022/08/18 08:17:08;;;;;;;12.15;5.25;;;;;;;;;;5029681;28;20028;-84
2022/08/18 08:19:50;;;;;;;10.10;4.20;;;24.60;73.60;;;;;;5046476;28;20033;-83
2022/08/18 08:22:21;;;;;;;10.98;3.97;;;;;;;;;;5047387;28;20021;-81
2022/08/18 08:24:54;;;;;;;11.85;4.65;;;;;;;;;;5040285;28;20033;-82
2022/08/18 08:27:35;;;;;;;8.82;3.53;;;24.40;75.30;;;;;;5044661;28;20047;-82
2022/08/18 08:30:11;;;;;;;5.53;3.42;;;24.80;74.40;;;;;;5046663;28;20053;-81
2022/08/18 08:32:43;;;;;;;9.55;3.72;;;;;;;;;;5063042;28;20096;-81
2022/08/18 08:35:14;;;;;;;7.95;3.95;;;;;;;;;;5047324;28;20029;-81
2022/08/18 08:37:43;;;;;;;5.80;3.63;;;;;;;;;;5047996;28;20025;-81
2022/08/18 08:40:12;;;;;;;6.53;4.50;;;;;;;;;;5041832;28;20068;-82
2022/08/18 08:42:48;;;;;;;8.07;4.22;;;25.60;72.50;;;;;;5043902;28;20087;-81
2022/08/18 08:45:23;;;;;;;6.15;3.55;;;25.50;71.70;;;;;;5027656;28;20025;-82
2022/08/18 08:47:56;;;;;;;13.25;4.68;;;;;;;;;;5047519;28;20103;-82
2022/08/18 08:50:26;;;;;;;6.72;3.67;;;25.00;72.10;;;;;;5047975;28;20037;-82
2022/08/18 08:53:04;;;;;;;7.45;3.67;;;24.90;73.40;;;;;;5043373;28;20094;-82
2022/08/18 08:55:36;;;;;;;9.82;4.57;;;24.60;74.20;;;;;;5045691;28;20036;-82
2022/08/18 08:58:08;;;;;;;8.98;4.78;;;;;;;;;;5047870;28;20032;-82
2022/08/18 09:00:35;;;;;;;7.72;4.13;;;24.00;76.50;;;;;;5046106;28;20036;-82
2022/08/18 09:03:10;;;;;;;9.43;4.50;;;;;;;;;;5042292;28;20052;-81
2022/08/18 09:06:01;;;;;;;9.70;4.90;;;23.70;78.80;;;;;;5042740;28;20017;-82
2022/08/18 09:08:27;;;;;;;9.48;4.55;;;;;;;;;;5046900;28;20025;-82
2022/08/18 09:10:59;;;;;;;6.88;3.67;;;;;;;;;;5047145;28;20020;-82
2022/08/18 09:13:31;;;;;;;7.82;4.00;;;;;;;;;;5047174;28;20021;-81
2022/08/18 09:16:12;;;;;;;6.78;3.85;;;;;;;;;;5047294;28;20037;-82
2022/08/18 09:18:48;;;;;;;18.83;4.63;;;;;;;;;;5046648;28;20078;-82
2022/08/18 09:21:29;;;;;;;8.90;4.05;;;23.00;82.20;;;;;;5047349;28;20086;-83
2022/08/18 09:24:25;;;;;;;6.10;4.18;;;23.40;82.30;;;;;;5046734;28;20029;-83
2022/08/18 09:26:53;;;;;;;7.32;4.32;;;;;;;;;;5042728;28;20056;-83
2022/08/18 09:29:36;;;;;;;7.70;3.88;;;24.80;77.10;;;;;;5044883;28;20481;-84
2022/08/18 09:32:17;;;;;;;6.00;3.33;;;25.20;75.30;;;;;;5045052;28;20040;-83
2022/08/18 09:35:09;;;;;;;7.10;3.58;;;25.50;73.60;;;;;;5046943;28;20083;-84
2022/08/18 09:37:46;;;;;;;7.75;3.45;;;25.60;73.40;;;;;;5045627;28;20017;-83
2022/08/18 09:43:33;;;;;;;6.78;3.75;;;25.10;74.00;;;;;;5046530;28;21030;-81
2022/08/18 09:46:03;;;;;;;8.00;3.35;;;;;;;;;;4955719;28;20773;-81
2022/08/18 09:48:36;;;;;;;7.80;3.53;;;24.80;76.50;;;;;;4959383;28;20520;-82
2022/08/18 09:51:19;;;;;;;7.47;4.22;;;24.80;76.00;;;;;;4953530;28;20039;-82
2022/08/18 09:53:45;;;;;;;5.40;3.05;;;;;;;;;;4957400;28;20166;-81
2022/08/18 09:56:12;;;;;;;5.90;3.28;;;;;;;;;;4961885;28;20943;-81
2022/08/18 09:58:57;;;;;;;8.20;3.63;;;25.30;77.20;;;;;;4961824;28;20026;-81
2022/08/18 10:01:29;;;;;;;5.80;4.03;;;25.60;75.00;;;;;;4960617;28;20050;-81
2022/08/18 10:04:13;;;;;;;6.63;3.03;;;25.90;72.60;;;;;;4960483;28;20026;-81
2022/08/18 10:06:40;;;;;;;3.95;2.10;;;;;;;;;;4960997;28;20046;-81
2022/08/18 10:09:39;;;;;;;5.63;2.78;;;25.50;73.40;;;;;;4964597;28;20041;-80
2022/08/18 10:12:28;;;;;;;4.90;2.90;;;25.50;74.10;;;;;;4957848;28;20094;-81
2022/08/18 10:15:28;;;;;;;4.82;2.83;;;25.00;74.10;;;;;;4952505;28;20062;-81
2022/08/18 10:18:35;;;;;;;5.28;3.17;;;25.10;75.50;;;;;;4956382;28;20107;-81
2022/08/18 10:21:16;;;;;;;4.93;3.17;;;25.20;75.40;;;;;;4925112;29;20027;-81
2022/08/18 10:23:42;;;;;;;7.28;3.42;;;;;;;;;;4972728;28;20483;-82
2022/08/18 10:26:29;;;;;;;6.45;2.78;;;25.10;76.50;;;;;;4999194;28;20037;-82
2022/08/18 10:28:56;;;;;;;5.53;2.60;;;;;;;;;;4982822;28;20046;-81
2022/08/18 10:31:23;;;;;;;6.18;2.75;;;;;;;;;;4983136;28;20026;-80
2022/08/18 10:34:07;;;;;;;4.55;2.80;;;25.30;74.30;;;;;;4982569;28;20027;-81
2022/08/18 10:36:33;;;;;;;3.95;2.97;;;;;;;;;;4977402;28;20084;-81
2022/08/18 10:39:04;;;;;;;6.20;3.10;;;25.00;75.60;;;;;;4983170;28;20438;-82
2022/08/18 10:41:31;;;;;;;5.75;3.22;;;24.80;75.50;;;;;;4982731;28;20113;-80
2022/08/18 10:44:00;;;;;;;4.40;2.53;;;24.70;77.40;;;;;;4982370;28;20155;-81
2022/08/18 10:46:32;;;;;;;4.47;2.95;;;24.70;76.70;;;;;;4982925;28;20133;-81
2022/08/18 10:48:58;;;;;;;15.30;4.30;;;;;;;;;;4980501;28;20089;-80
2022/08/18 10:51:32;;;;;;;4.55;2.70;;;;;;;;;;4982907;28;20146;-81
2022/08/18 10:54:33;;;;;;;5.45;3.13;;;24.70;76.30;;;;;;4986213;28;20054;-81
2022/08/18 10:57:15;;;;;;;4.40;2.95;;;;;;;;;;5037240;28;20063;-81
2022/08/18 10:59:44;;;;;;;5.25;2.67;;;25.10;75.60;;;;;;5043702;28;20196;-80
2022/08/18 11:02:41;;;;;;;6.13;2.60;;;25.30;75.10;;;;;;5041860;28;20039;-80
2022/08/18 11:05:09;;;;;;;4.78;2.60;;;;;;;;;;5042696;28;20025;-81
2022/08/18 11:07:37;;;;;;;5.10;2.33;;;;;;;;;;5044485;28;20029;-81
2022/08/18 11:10:19;;;;;;;5.75;2.20;;;25.60;73.10;;;;;;5043206;28;20383;-81
2022/08/18 11:12:45;;;;;;;5.43;2.47;;;;;;;;;;5044581;28;20055;-81
2022/08/18 11:15:20;;;;;;;4.65;2.88;;;;;;;;;;5043803;28;20045;-82
2022/08/18 11:17:52;;;;;;;2.92;2.10;;;;;;;;;;5043727;28;20028;-82
2022/08/18 11:20:21;;;;;;;5.75;2.88;;;25.90;73.70;;;;;;5041567;28;20060;-81
2022/08/18 11:22:59;;;;;;;4.28;3.10;;;25.90;72.60;;;;;;5041957;28;20028;-81
2022/08/18 11:25:37;;;;;;;4.10;2.58;;;25.90;72.80;;;;;;5043592;28;20048;-81
2022/08/18 11:28:18;;;;;;;5.30;2.70;;;25.80;73.50;;;;;;5041466;28;20048;-81
2022/08/18 11:30:44;;;;;;;5.10;2.95;;;;;;;;;;5041757;28;20033;-82
2022/08/18 11:33:18;;;;;;;6.07;2.03;;;25.70;72.50;;;;;;5041523;28;20028;-83
2022/08/18 11:36:10;;;;;;;4.18;2.35;;;;;;;;;;5041846;28;20037;-83
2022/08/18 11:38:37;;;;;;;3.30;2.15;;;;;;;;;;5037644;28;20045;-82
2022/08/18 11:41:29;;;;;;;4.27;2.40;;;25.00;74.70;;;;;;5044374;28;20021;-81
2022/08/18 11:43:58;;;;;;;3.47;2.40;;;;;;;;;;5039628;28;20131;-81
2022/08/18 11:46:29;;;;;;;3.47;2.33;;;;;;;;;;5041107;28;20040;-82
2022/08/18 11:48:55;;;;;;;4.97;1.75;;;;;;;;;;5042769;28;20045;-82
2022/08/18 11:51:23;;;;;;;3.45;2.03;;;;;;;;;;5041027;28;20021;-84
2022/08/18 11:54:17;;;;;;;4.00;2.05;;;24.40;76.60;;;;;;5041092;28;20087;-83
2022/08/18 11:56:43;;;;;;;2.65;1.98;;;;;;;;;;5041950;28;20155;-83
2022/08/18 11:59:24;;;;;;;3.38;2.00;;;24.40;77.20;;;;;;5038069;28;20214;-81
2022/08/18 12:01:51;;;;;;;4.40;2.65;;;;;;;;;;5042785;28;20025;-81
2022/08/18 12:04:30;;;;;;;8.05;2.10;;;24.30;77.20;;;;;;5049739;28;20044;-81
2022/08/18 12:06:59;;;;;;;10.43;2.67;;;;;;;;;;5047654;28;20959;-82
2022/08/18 12:09:45;;;;;;;2.78;1.88;;;24.60;77.10;;;;;;5047968;28;20068;-81
2022/08/18 12:12:25;;;;;;;5.32;2.35;;;;;;;;;;5048174;28;20056;-80
2022/08/18 12:15:22;;;;;;;5.15;3.10;;;24.80;77.20;;;;;;5047162;28;20075;-81
2022/08/18 12:17:48;;;;;;;4.15;2.20;;;;;;;;;;5045931;28;20037;-81
2022/08/18 12:20:15;;;;;;;3.70;2.42;;;24.90;76.90;;;;;;5046621;28;20394;-81
2022/08/18 12:22:42;;;;;;;6.68;2.08;;;24.70;76.70;;;;;;5047856;28;20025;-81
2022/08/18 12:25:11;;;;;;;3.00;2.33;;;;;;;;;;5045172;28;20580;-81
2022/08/18 12:27:37;;;;;;;3.53;2.35;;;;;;;;;;5047005;28;20028;-80
2022/08/18 12:30:04;;;;;;;5.72;2.67;;;24.50;80.70;;;;;;5045795;28;20029;-81
2022/08/18 12:32:33;;;;;;;8.05;3.15;;;24.70;80.40;;;;;;5045055;28;20029;-81
2022/08/18 12:34:59;;;;;;;4.07;2.85;;;;;;;;;;5046205;28;20037;-81
2022/08/18 12:37:27;;;;;;;7.45;2.38;;;24.90;78.10;;;;;;5047261;28;20095;-81
2022/08/18 12:39:54;;;;;;;2.47;1.67;;;;;;;;;;5047097;28;20070;-81
2022/08/18 12:42:20;;;;;;;6.32;1.75;;;;;;;;;;5044117;28;20043;-81
2022/08/18 12:44:46;;;;;;;8.68;2.00;;;;;;;;;;5046834;28;20036;-81
2022/08/18 12:47:15;;;;;;;4.35;2.05;;;25.20;73.90;;;;;;5046103;28;20574;-84
2022/08/18 12:49:41;;;;;;;1.95;1.15;;;25.30;73.30;;;;;;5044966;28;20102;-83
2022/08/18 12:52:07;;;;;;;2.53;1.13;;;25.20;72.70;;;;;;5039838;28;20673;-84
2022/08/18 12:54:34;;;;;;;2.28;1.48;;;;;;;;;;5042416;28;20528;-83
2022/08/18 12:57:01;;;;;;;2.92;2.05;;;;;;;;;;5046471;28;20044;-84
2022/08/18 12:59:27;;;;;;;2.67;1.53;;;;;;;;;;5044921;28;20036;-85
2022/08/18 13:01:53;;;;;;;3.15;1.27;;;;;;;;;;5046160;28;20124;-84
2022/08/18 13:04:19;;;;;;;2.97;1.63;;;;;;;;;;5045788;28;20033;-83
2022/08/18 13:06:47;;;;;;;2.45;1.48;;;;;;;;;;5037728;28;20028;-83
2022/08/18 13:09:13;;;;;;;9.88;2.33;;;;;;;;;;5042926;28;20060;-83
2022/08/18 13:11:40;;;;;;;2.45;1.38;;;;;;;;;;5046654;28;20458;-85
2022/08/18 13:14:07;;;;;;;2.42;1.27;;;;;;;;;;5043877;28;20032;-85
2022/08/18 13:16:34;;;;;;;2.15;1.30;;;;;;;;;;5043194;28;20021;-84
2022/08/18 13:19:00;;;;;;;2.38;1.75;;;;;;;;;;5028201;28;20041;-83
2022/08/18 13:21:27;;;;;;;5.50;1.58;;;;;;;;;;5046380;28;20025;-83
2022/08/18 13:23:53;;;;;;;2.20;1.35;;;;;;;;;;5047106;28;20021;-83
2022/08/18 13:26:28;;;;;;;2.35;1.15;;;25.40;73.40;;;;;;5047058;28;20033;-83
2022/08/18 13:28:54;;;;;;;5.05;2.45;;;25.40;72.50;;;;;;5057575;28;20127;-84
2022/08/18 13:31:20;;;;;;;11.88;1.48;;;;;;;;;;5048237;28;20083;-85
2022/08/18 13:33:46;;;;;;;3.13;1.15;;;;;;;;;;5047654;28;20035;-83
2022/08/18 13:36:12;;;;;;;1.55;1.10;;;;;;;;;;5046230;28;20029;-85
2022/08/18 13:38:41;;;;;;;1.63;1.10;;;;;;;;;;5046489;28;20025;-84
2022/08/18 13:41:07;;;;;;;4.13;1.80;;;;;;;;;;5047245;28;20024;-85
2022/08/18 13:43:37;;;;;;;7.35;1.45;;;25.10;73.60;;;;;;5046412;28;20020;-84
2022/08/18 13:46:07;;;;;;;2.10;1.17;;;;;;;;;;5045305;28;20028;-84
2022/08/18 13:48:33;;;;;;;3.38;1.52;;;;;;;;;;5042210;28;20033;-83
2022/08/18 13:51:01;;;;;;;4.70;1.20;;;25.00;71.60;;;;;;5042462;28;20024;-84
2022/08/18 13:53:28;;;;;;;3.83;1.10;;;;;;;;;;5045129;28;20132;-84
2022/08/18 13:55:56;;;;;;;;;;;;;;;;;;5046579;28;20110;-85
2022/08/18 13:58:22;;;;;;;2.50;1.40;;;;;;;;;;5046346;28;19916;-85
2022/08/18 14:00:51;;;;;;;1.48;1.25;;;;;;;;;;5044786;28;20033;-85
2022/08/18 14:03:19;;;;;;;2.40;1.17;;;;;;;;;;5044787;28;20045;-84
2022/08/18 14:05:45;;;;;;;1.90;1.30;;;;;;;;;;5045818;28;20013;-83
2022/08/18 14:08:11;;;;;;;1.33;1.13;;;;;;;;;;5046468;28;20029;-82
2022/08/18 14:10:37;;;;;;;3.05;1.77;;;;;;;;;;5028149;28;20013;-84
2022/08/18 14:13:05;;;;;;;1.63;1.25;;;;;;;;;;5044181;28;20070;-84
2022/08/18 14:15:35;;;;;;;2.60;1.40;;;;;;;;;;5045074;28;20055;-83
2022/08/18 14:18:01;;;;;;;5.25;1.13;;;;;;;;;;5055006;28;20037;-84
2022/08/18 14:28:41;;;;;;;9.55;2.47;;;;;;;;;;5037985;28;20060;-83
2022/08/18 14:31:07;;;;;;;2.03;1.10;;;;;;;;;;5047164;28;20020;-84
2022/08/18 14:33:36;;;;;;;2.03;1.15;;;;;;;;;;5046142;28;20029;-85
2022/08/18 14:36:02;;;;;;;6.10;1.33;;;;;;;;;;5042676;28;20041;-84